Estación municipal de Les Masies de Roda (Osona, Ter)

Consulta los datos en tiempo real de la estación municipal de Les Masies de Roda





Hora UTC 19:30
Temperatura 14.2 ºC
Suelo 15 cm 13.2 ºC
Humedad 87.2 %
Presión 1013.6 hPa
Pluja 1.7 mm
Velocidad viento 5.5 km/h
Dirección viento SSE
Radiación solar 0.1 W/m²

Datos diarios 2026-05-03



Hora UTC (invierno +1h; verano +2h)
Temperatura (ºC) Humedad (%) Presión (hPa) Velocidad viento (km/h) Precipitación (mm) Radiación solar (W/m²)
Hora UTC Aire Suelo 15 cm Humedad Presión Vel. Dir. Vel. Max Dir. Intent. máx 5 min. Rad. Sol.
00:05 13.8 13.0 81.5 1018.0 0.8 W 0.8 W 0.0 0.1
00:10 13.7 13.0 83.8 1017.9 0.9 NNW 2.1 W 0.0 0.1
00:15 13.6 12.9 81.7 1017.9 0.1 N 2.1 N 0.0 0.1
00:20 13.8 13.0 79.9 1017.7 0.0 NNE 0.0 NNE 0.0 0.1
00:25 13.8 13.0 83.2 1017.8 1.8 NNW 3.5 N 0.0 0.1
00:30 13.5 12.9 84.3 1017.7 2.5 NNE 3.5 N 0.0 0.1
00:35 13.6 12.9 81.6 1017.7 1.6 N 3.2 N 0.0 0.1
00:40 13.7 12.9 81.5 1017.6 0.9 NNE 3.2 ENE 0.0 0.1
00:45 13.7 12.9 79.8 1017.6 2.2 NE 3.9 NE 0.0 0.1
00:50 13.7 12.9 79.9 1017.5 0.9 NNE 3.5 NE 0.0 0.1
00:55 13.8 12.9 81.9 1017.4 0.0 NNE 0.0 NNW 0.0 0.1
01:00 13.7 12.9 83.7 1017.4 0.0 NNE 0.0 NNW 0.0 0.1
01:05 13.5 12.8 84.3 1017.2 1.0 NNE 3.2 NNE 0.0 0.1
01:10 13.6 12.8 80.6 1017.2 1.6 NNE 2.8 NNE 0.0 0.1
01:15 13.7 12.9 82.2 1017.1 2.0 WNW 3.9 WNW 0.0 0.1
01:20 13.7 12.8 84.5 1017.2 0.9 NW 3.2 WNW 0.0 0.1
01:25 13.6 12.8 83.0 1017.0 1.6 NE 3.9 NE 0.0 0.1
01:30 13.7 12.8 82.4 1017.1 0.2 NE 2.5 ENE 0.0 0.1
01:35 13.7 12.9 79.5 1017.0 2.8 ENE 4.6 ENE 0.0 0.1
01:40 13.9 12.9 78.6 1017.0 2.0 ENE 4.2 ENE 0.0 0.1
01:45 13.8 13.0 78.7 1016.8 3.0 ESE 6.0 ESE 0.0 0.1
01:50 13.9 13.0 77.9 1016.7 4.2 E 7.1 ENE 0.0 0.1
01:55 14.0 13.0 76.8 1016.7 2.8 ENE 6.7 E 0.0 0.1
02:00 14.0 13.0 77.1 1016.6 0.2 ENE 2.1 ENE 0.0 0.1
02:05 13.9 13.0 77.7 1016.7 1.5 NNE 2.5 N 0.0 0.1
02:10 13.8 12.9 79.2 1016.5 1.5 N 3.5 NNE 0.0 0.1
02:15 13.7 12.8 80.9 1016.6 0.0 NNE 0.0 N 0.0 0.1
02:20 13.6 12.8 81.7 1016.5 2.1 NW 5.3 WNW 0.0 0.1
02:25 13.5 12.7 83.9 1016.6 1.5 NW 2.8 NW 0.0 0.1
02:30 13.3 12.6 82.8 1016.5 0.0 NNE 0.0 NW 0.0 0.1
02:35 13.3 12.6 83.8 1016.6 1.0 W 3.9 W 0.0 0.1
02:40 13.2 12.5 84.0 1016.5 0.7 WSW 2.5 WSW 0.0 0.1
02:45 13.2 12.5 85.0 1016.5 1.7 WNW 4.6 W 0.0 0.1
02:50 13.1 12.4 85.1 1016.6 1.1 WSW 2.8 WSW 0.0 0.1
02:55 13.1 12.4 84.3 1016.5 2.4 WSW 5.7 SW 0.0 0.1
03:00 13.1 12.4 84.4 1016.7 2.1 WNW 4.2 WSW 0.0 0.1
03:05 13.0 12.4 83.7 1016.5 1.2 NNW 3.2 WNW 0.0 0.1
03:10 13.3 12.5 81.3 1016.5 3.5 NE 5.7 NE 0.0 0.1
03:15 13.5 12.6 80.2 1016.4 2.6 ENE 6.0 NE 0.0 0.1
03:20 13.5 12.6 79.5 1016.5 0.9 NNE 3.2 N 0.0 0.1
03:25 13.4 12.5 82.3 1016.4 1.7 NW 3.9 WNW 0.0 0.1
03:30 13.3 12.4 81.5 1016.4 1.7 NW 3.5 WNW 0.0 0.1
03:35 13.3 12.4 82.9 1016.4 2.3 NW 3.9 W 0.0 0.1
03:40 13.2 12.4 80.4 1016.3 0.3 N 3.2 0.0 0.1
03:45 13.4 12.4 78.8 1016.3 2.1 NE 5.0 N 0.0 0.1
03:50 13.5 12.5 78.4 1016.2 1.6 NNW 4.6 NNW 0.0 0.1
03:55 13.4 12.5 81.7 1016.4 0.8 ENE 2.8 ENE 0.0 0.1
04:00 13.3 12.4 78.1 1016.2 1.9 E 3.2 E 0.0 0.1
04:05 13.5 12.4 77.4 1016.3 1.9 E 3.5 E 0.0 0.1
04:10 13.5 12.3 78.3 1016.2 0.0 NNE 0.0 ENE 0.0 0.1
04:15 13.3 12.2 82.2 1016.2 2.7 SW 5.0 SW 0.0 0.1
04:20 13.0 12.1 82.7 1016.2 3.1 S 4.6 S 0.0 0.1
04:25 13.0 12.0 83.5 1016.1 1.6 SW 3.5 W 0.0 0.1
04:30 12.9 12.1 81.0 1016.1 0.0 NNE 0.0 SW 0.0 0.2
04:35 13.1 12.1 82.6 1015.9 1.4 NNW 5.0 NNW 0.0 0.3
04:40 13.0 12.0 82.8 1016.0 1.3 N 4.2 N 0.0 0.6
04:45 12.9 12.0 85.0 1015.9 2.7 NW 4.6 NW 0.0 1.0
04:50 12.8 12.0 86.1 1015.9 1.0 N 2.5 NNE 0.0 1.6
04:55 12.8 12.0 84.2 1015.9 0.4 NNE 2.1 NNE 0.0 2.8
05:00 12.9 12.0 85.8 1015.8 0.2 NNE 2.1 NNE 0.0 6.2
05:05 12.8 12.1 84.7 1015.8 0.0 NNE 0.0 NNE 0.0 9.6
05:10 13.0 12.2 84.0 1015.9 1.5 SE 3.2 SE 0.0 8.7
05:15 13.3 12.3 83.9 1016.0 1.0 W 3.2 W 0.0 10.0
05:20 13.1 12.3 86.0 1015.9 0.1 NNE 2.1 NNE 0.0 12.0
05:25 13.1 12.4 85.8 1016.0 0.6 NE 2.5 NNE 0.0 16.4
05:30 13.2 12.4 85.1 1015.9 2.6 ESE 5.7 E 0.0 19.2
05:35 13.4 12.5 84.2 1016.1 3.2 SE 5.7 SSE 0.0 20.7
05:40 13.5 12.6 83.4 1016.0 2.0 SSE 4.2 SSE 0.0 25.1
05:45 13.2 12.7 85.6 1016.1 3.4 NNW 5.0 NNW 0.0 34.5
05:50 13.1 12.6 85.4 1016.1 3.9 NNW 4.6 NNW 0.0 47.3
05:55 13.1 12.6 87.4 1016.0 2.5 NW 4.2 NW 0.0 58.3
06:00 13.1 12.6 87.5 1016.1 0.1 NNW 1.8 NNW 0.0 64.7
06:05 13.3 12.8 88.0 1016.0 3.0 WNW 4.6 NW 0.0 68.5
06:10 13.4 13.0 87.1 1016.2 0.3 WNW 2.5 WNW 0.0 76.6
06:15 13.5 13.3 83.8 1016.1 0.0 NNE 0.0 WNW 0.0 89.1
06:20 13.7 13.6 82.0 1016.1 0.0 NNE 0.0 WNW 0.0 93.4
06:25 13.9 13.9 81.5 1016.0 0.7 WNW 2.1 WNW 0.0 171.5
06:30 14.1 14.4 82.1 1016.1 2.6 NW 4.2 NNW 0.0 134.1
06:35 14.2 14.7 80.3 1016.0 2.7 NNW 4.6 NNW 0.0 132.2
06:40 14.2 14.8 80.5 1015.9 2.7 NNW 4.2 NW 0.0 150.4
06:45 14.2 14.8 78.7 1016.0 0.5 NW 2.8 NW 0.0 166.5
06:50 14.6 15.0 77.8 1016.0 1.4 W 3.5 W 0.0 182.6
06:55 14.8 15.4 73.1 1016.1 0.6 NNW 4.2 N 0.0 177.0
07:00 14.7 15.6 72.5 1016.0 2.4 N 4.6 N 0.0 186.3
07:05 14.7 15.8 72.9 1016.1 0.4 NNE 2.5 N 0.0 185.3
07:10 14.9 16.1 72.5 1016.0 0.1 N 3.5 N 0.0 203.9
07:15 15.2 16.5 71.3 1016.1 1.8 N 3.9 N 0.0 218.7
07:20 15.0 16.6 71.5 1016.0 1.2 WNW 3.2 NW 0.0 212.7
07:25 15.3 16.8 72.1 1016.1 2.2 W 3.2 WNW 0.0 266.2
07:30 15.5 17.3 69.1 1016.0 0.8 NW 2.8 WNW 0.0 298.9
07:35 15.7 17.8 69.7 1016.1 1.2 WNW 4.2 W 0.0 305.8
07:40 15.8 18.3 66.2 1016.0 0.0 NNE 0.0 W 0.0 316.0
07:45 16.1 18.7 66.1 1016.0 1.7 N 3.5 N 0.0 311.2
07:50 15.8 18.9 65.7 1016.0 1.9 NE 3.9 NE 0.0 281.1
07:55 15.8 19.0 66.0 1016.0 2.0 SE 4.2 SE 0.0 302.1
08:00 15.9 19.1 66.3 1015.9 4.0 SSE 6.7 SSE 0.0 336.8
08:05 16.0 19.2 66.3 1015.9 2.7 SSE 4.6 S 0.0 331.9
08:10 16.4 19.4 66.1 1015.8 3.1 S 4.6 SSW 0.0 289.3
08:15 16.4 19.5 64.2 1015.9 1.0 SW 4.2 SW 0.0 276.5
08:20 16.4 19.5 66.1 1015.8 1.9 W 3.2 SW 0.0 280.3
08:25 16.5 19.6 66.1 1015.8 3.4 W 5.3 WSW 0.0 325.6
08:30 16.6 19.7 63.3 1015.7 1.3 W 4.2 WSW 0.0 370.1
08:35 16.8 20.1 64.3 1015.8 2.8 SW 5.7 WSW 0.0 348.1
08:40 16.9 20.3 65.6 1015.9 3.7 WNW 5.0 SW 0.0 351.6
08:45 16.6 20.3 64.3 1015.8 3.4 WNW 5.3 NW 0.0 358.0
08:50 16.7 20.3 66.3 1015.9 3.6 WSW 6.0 WSW 0.0 383.1
08:55 16.8 20.6 62.9 1015.7 2.5 NW 5.3 N 0.0 406.9
09:00 16.9 20.7 63.8 1015.8 3.5 WNW 5.7 WNW 0.0 461.4
09:05 17.1 21.0 61.5 1015.7 1.0 N 4.2 NNE 0.0 488.8
09:10 17.2 21.2 60.2 1015.8 1.7 E 4.6 ESE 0.0 463.4
09:15 17.1 21.4 59.5 1015.7 3.8 SSE 8.1 SSW 0.0 476.2
09:20 17.4 21.7 60.3 1015.8 2.9 S 6.0 SSW 0.0 458.7
09:25 17.4 21.8 57.4 1015.8 4.9 SSE 10.6 SE 0.0 448.5
09:30 17.4 21.8 58.8 1015.7 4.2 SSW 9.9 S 0.0 468.6
09:35 18.1 22.2 60.1 1015.8 5.0 SW 8.1 SSW 0.0 510.7
09:40 18.5 22.8 55.6 1015.7 6.9 S 11.0 S 0.0 443.4
09:45 18.1 22.9 53.8 1015.9 6.7 SSE 12.0 S 0.0 413.2
09:50 17.9 22.6 54.6 1015.7 6.9 SSE 10.3 SSE 0.0 442.1
09:55 18.0 22.5 56.2 1015.9 7.9 S 13.4 S 0.0 520.5
10:00 18.1 22.7 54.1 1015.8 6.9 SSE 12.4 SSW 0.0 440.8
10:05 18.2 22.8 55.8 1015.9 8.6 S 18.7 S 0.0 418.9
10:10 18.1 22.6 53.9 1015.9 7.8 S 13.8 SSE 0.0 287.0
10:15 18.0 22.2 57.1 1015.8 7.0 SW 11.3 SW 0.0 310.4
10:20 18.0 22.1 55.1 1015.9 6.0 S 9.5 SE 0.0 373.6
10:25 18.1 22.2 54.1 1015.7 6.8 SSE 10.3 SSE 0.0 420.1
10:30 18.0 22.3 55.4 1015.8 6.2 S 11.0 SSW 0.0 385.5
10:35 18.4 22.8 59.4 1015.6 6.2 SSW 8.8 SSW 0.0 468.2
10:40 18.7 23.6 57.1 1015.7 6.2 SSW 9.5 SSW 0.0 449.5
10:45 18.9 24.2 57.6 1015.5 5.0 S 9.5 SSE 0.0 616.8
10:50 18.8 24.8 54.9 1015.5 5.9 ESE 10.3 SE 0.0 547.2
10:55 18.8 25.0 60.9 1015.4 3.4 W 9.2 SW 0.0 585.6
11:00 19.3 25.2 56.1 1015.3 5.1 SW 12.0 SW 0.0 407.3
11:05 19.3 25.1 59.7 1015.4 7.1 WSW 11.7 SW 0.0 420.9
11:10 19.3 25.1 58.3 1015.2 6.2 SW 9.9 SW 0.0 378.3
11:15 19.3 25.0 57.3 1015.3 5.6 SSE 9.9 E 0.0 415.2
11:20 19.3 24.9 56.1 1015.0 5.0 SSE 10.6 SSE 0.0 409.3
11:25 19.5 24.8 56.8 1015.2 2.7 WSW 6.0 W 0.0 394.7
11:30 19.5 24.6 58.8 1015.0 5.4 SSW 10.6 S 0.0 345.0
11:35 19.4 24.4 57.8 1015.0 3.2 SW 7.1 S 0.0 427.0
11:40 19.6 24.6 59.8 1015.0 6.4 SW 13.4 SSW 0.0 331.5
11:45 19.5 24.4 56.6 1015.0 6.9 SW 12.0 SSW 0.0 271.6
11:50 19.2 23.7 57.9 1015.0 7.9 SW 13.8 SW 0.0 224.3
11:55 18.9 22.8 60.0 1014.7 8.7 SW 15.9 W 0.0 285.2
12:00 19.0 22.5 59.3 1014.8 7.2 SSW 11.7 SSW 0.0 294.5
12:05 19.1 22.6 60.7 1014.6 5.4 SSW 10.3 SSW 0.0 336.1
12:10 19.4 22.7 63.8 1014.8 11.5 S 20.5 SSW 0.0 429.6
12:15 18.7 21.5 72.1 1014.5 12.4 SSW 18.4 S 0.0 520.9
12:20 18.6 21.1 75.5 1014.5 8.0 SSW 13.8 S 0.0 590.4
12:25 19.0 22.3 74.5 1014.4 8.6 SW 13.1 WSW 0.0 845.0
12:30 19.7 24.3 72.1 1014.5 7.8 SW 13.4 S 0.0 612.1
12:35 20.0 25.4 70.3 1014.4 7.1 WSW 13.4 W 0.0 834.0
12:40 20.3 27.1 68.9 1014.3 7.0 W 13.4 W 0.0 836.0
12:45 20.5 28.5 67.9 1014.3 8.4 W 13.1 W 0.0 862.0
12:50 20.9 29.8 62.7 1014.1 4.5 WSW 12.7 WSW 0.0 806.0
12:55 21.0 30.3 64.1 1014.2 7.3 WSW 15.9 SW 0.0 780.3
13:00 20.8 30.3 61.0 1014.0 6.9 SSE 12.0 SE 0.0 739.4
13:05 20.7 29.9 64.9 1014.1 7.0 WSW 13.8 WSW 0.0 538.3
13:10 20.8 29.1 63.1 1014.0 4.0 WSW 8.5 SW 0.0 398.5
13:15 20.4 27.7 60.1 1014.1 5.8 SSE 12.0 SE 0.0 309.1
13:20 19.9 26.1 60.9 1014.0 7.5 SSE 12.4 SE 0.0 248.7
13:25 19.6 24.6 60.7 1014.0 8.1 ESE 13.8 SSE 0.0 271.3
13:30 19.8 23.9 60.3 1014.0 7.0 ESE 11.7 E 0.0 381.6
13:35 19.7 23.8 60.3 1013.9 7.8 ESE 21.5 ESE 0.0 346.2
13:40 19.7 23.7 59.6 1014.0 9.0 ESE 16.2 E 0.0 362.2
13:45 19.8 23.6 59.5 1013.8 8.0 ESE 14.1 ENE 0.0 439.7
13:50 19.9 24.0 59.6 1013.9 8.2 SE 16.2 SSE 0.0 454.5
13:55 20.4 24.7 60.7 1013.7 8.5 S 17.7 S 0.0 602.8
14:00 20.5 25.2 59.9 1013.8 12.3 SSW 18.4 SSW 0.0 361.3
14:05 19.9 24.5 59.2 1013.6 13.9 S 22.6 SSE 0.0 376.5
14:10 19.5 23.5 60.6 1013.6 12.3 S 21.2 S 0.0 453.3
14:15 19.6 23.6 61.8 1013.5 14.0 SSW 23.7 SSW 0.0 431.0
14:20 19.4 23.6 61.8 1013.5 14.3 S 26.1 S 0.0 369.1
14:25 19.0 23.0 63.0 1013.5 15.2 SSW 23.7 S 0.0 279.9
14:30 18.6 22.2 64.2 1013.4 15.1 SSW 23.7 SSW 0.0 225.8
14:35 18.4 21.3 64.3 1013.4 15.6 SSW 24.4 SSW 0.0 206.2
14:40 18.2 20.7 65.7 1013.2 13.3 SSW 21.2 SSW 0.0 229.4
14:45 18.3 20.6 66.5 1013.3 10.1 SSW 17.3 SSW 0.0 234.8
14:50 18.4 20.8 65.8 1013.0 8.5 SSW 15.2 SSW 0.0 236.6
14:55 18.5 21.0 66.6 1013.1 8.7 SSW 14.1 S 0.0 199.1
15:00 18.5 21.1 66.1 1013.0 8.5 SSW 13.1 SW 0.0 263.1
15:05 18.7 21.4 64.8 1013.0 8.6 SSW 13.4 SSW 0.0 274.6
15:10 18.9 21.7 64.1 1013.0 5.3 S 9.5 SSE 0.0 203.0
15:15 19.1 21.4 61.6 1012.9 5.5 SE 13.4 ENE 0.0 154.7
15:20 18.8 20.8 61.1 1013.0 7.0 ESE 11.7 ESE 0.0 126.2
15:25 18.7 20.2 61.8 1012.9 4.6 SE 9.5 ESE 0.0 103.1
15:30 18.7 19.7 60.9 1013.0 5.7 ESE 12.0 E 0.0 85.0
15:35 18.5 19.3 61.0 1012.8 6.4 ESE 13.4 ESE 0.0 67.4
15:40 18.4 18.9 60.5 1013.0 6.2 ESE 13.1 SE 0.0 48.0
15:45 18.2 18.5 61.6 1012.8 5.6 SE 9.5 E 0.0 44.6
15:50 18.1 18.1 62.5 1013.0 4.5 SE 9.2 ESE 0.0 41.7
15:55 18.1 17.6 63.2 1013.0 5.6 SSE 10.6 SW 0.0 39.6
16:00 17.7 17.1 60.8 1013.1 7.0 SSW 11.7 S 0.0 42.8
16:05 17.4 16.2 66.5 1013.1 3.8 SW 8.5 WSW 0.2 52.8
16:10 16.9 15.4 70.7 1013.2 3.2 SW 8.1 S 0.1 50.3
16:15 16.4 14.8 72.7 1013.2 2.5 W 6.7 SW 0.0 57.9
16:20 16.2 14.5 74.6 1013.2 1.1 WSW 4.2 SW 0.1 61.3
16:25 16.1 14.4 75.3 1013.2 1.3 WSW 6.7 SW 0.1 62.4
16:30 15.9 14.3 78.0 1013.2 3.7 SW 6.0 S 0.2 58.6
16:35 15.7 14.3 81.3 1013.3 4.9 SW 11.0 S 0.2 54.0
16:40 15.5 14.3 82.7 1013.2 7.4 SSW 13.4 SSW 0.0 50.8
16:45 15.4 14.2 84.2 1013.2 6.0 S 10.3 SSW 0.1 45.7
16:50 15.4 14.2 82.5 1013.1 7.3 SSE 11.7 SSE 0.1 45.2
16:55 15.3 14.2 85.8 1013.1 6.6 SSW 10.6 WSW 0.1 45.4
17:00 15.0 14.2 87.8 1013.1 6.2 SW 9.9 WSW 0.2 45.5
17:05 14.8 14.2 89.3 1013.2 5.0 SW 8.8 WSW 0.2 54.1
17:10 14.7 14.2 90.9 1013.1 2.3 SSW 5.3 SW 0.1 52.4
17:15 14.7 14.2 91.1 1013.1 2.5 S 6.4 S 0.0 37.7
17:20 14.7 14.2 92.0 1013.1 0.6 SW 3.9 S 0.0 28.0
17:25 14.6 14.2 92.4 1013.1 2.7 SW 6.4 S 0.0 23.4
17:30 14.5 14.1 91.7 1013.1 3.9 S 6.4 SSE 0.0 26.4
17:35 14.5 14.0 92.1 1012.9 0.7 S 3.9 W 0.0 27.1
17:40 14.5 14.1 92.6 1013.1 3.7 WSW 5.0 WSW 0.0 18.6
17:45 14.6 14.1 93.4 1013.1 3.5 W 5.3 W 0.0 12.8
17:50 14.5 14.2 93.5 1013.3 3.1 WSW 6.0 WSW 0.0 9.3
17:55 14.5 14.2 93.1 1013.2 5.7 S 10.6 S 0.0 7.9
18:00 14.6 14.1 87.7 1013.4 6.3 SE 10.3 E 0.0 8.6
18:05 14.8 13.9 85.0 1013.2 5.0 ESE 11.3 ESE 0.0 11.0
18:10 14.8 13.8 85.2 1013.4 4.8 ESE 10.6 SE 0.0 10.0
18:15 14.8 13.8 84.5 1013.3 4.0 ESE 9.9 SE 0.0 11.4
18:20 14.8 13.7 84.3 1013.4 3.3 ESE 7.8 SE 0.0 10.4
18:25 14.8 13.7 84.1 1013.4 4.2 E 9.2 ESE 0.0 6.9
18:30 14.7 13.6 83.3 1013.5 4.8 E 8.8 SE 0.0 6.1
18:35 14.7 13.5 83.3 1013.3 4.5 E 7.4 ESE 0.0 6.4
18:40 14.6 13.5 83.0 1013.4 4.1 ESE 7.8 ESE 0.0 4.4
18:45 14.6 13.4 82.8 1013.3 3.8 ESE 9.5 E 0.0 3.0
18:50 14.6 13.3 83.3 1013.2 4.4 SE 9.9 SSE 0.0 1.9
18:55 14.5 13.3 82.9 1013.4 6.3 SSE 9.2 SE 0.0 0.7
19:00 14.5 13.2 82.7 1013.3 5.2 SSE 8.1 SSE 0.0 0.4
19:05 14.5 13.2 83.1 1013.5 6.4 SSE 9.9 SSE 0.0 0.2
19:10 14.4 13.2 84.0 1013.4 5.6 SSE 8.1 SSE 0.0 0.2
19:15 14.4 13.2 86.3 1013.6 3.5 SSW 5.7 SSE 0.0 0.1
19:20 14.3 13.2 88.4 1013.5 4.3 SSW 6.4 SSW 0.0 0.1
19:25 14.2 13.2 89.4 1013.7 4.2 S 6.0 SSW 0.0 0.1
19:30 14.2 13.2 87.2 1013.6 5.5 SSE 8.5 SE 0.0 0.1
Máxima 21.0 30.3 93.5 1018.0 15.6 SSW 26.1 S 0.2 862.0
Mínima 12.8 12.0 53.8 1012.8
Total 1.7